sensor_id;sensor_type;location;lat;lon;timestamp;temperature;humidity
3208;DHT22;1616;52.394;9.756;2024-03-08T00:02:13;3.00;94.40
3208;DHT22;1616;52.394;9.756;2024-03-08T00:04:39;3.00;94.40
3208;DHT22;1616;52.394;9.756;2024-03-08T00:07:05;3.00;94.50
3208;DHT22;1616;52.394;9.756;2024-03-08T00:09:33;3.00;94.60
3208;DHT22;1616;52.394;9.756;2024-03-08T00:11:59;3.00;94.50
3208;DHT22;1616;52.394;9.756;2024-03-08T00:14:25;3.00;95.80
3208;DHT22;1616;52.394;9.756;2024-03-08T00:16:51;3.00;94.50
3208;DHT22;1616;52.394;9.756;2024-03-08T00:19:18;3.00;94.60
3208;DHT22;1616;52.394;9.756;2024-03-08T00:21:44;3.00;94.60
3208;DHT22;1616;52.394;9.756;2024-03-08T00:24:10;2.90;94.50
3208;DHT22;1616;52.394;9.756;2024-03-08T00:26:36;3.00;94.60
3208;DHT22;1616;52.394;9.756;2024-03-08T00:29:02;2.90;94.60
3208;DHT22;1616;52.394;9.756;2024-03-08T00:31:29;2.90;94.50
3208;DHT22;1616;52.394;9.756;2024-03-08T00:33:56;2.90;94.60
3208;DHT22;1616;52.394;9.756;2024-03-08T00:36:23;2.90;94.60
3208;DHT22;1616;52.394;9.756;2024-03-08T00:38:48;2.80;94.50
3208;DHT22;1616;52.394;9.756;2024-03-08T00:41:14;2.80;94.60
3208;DHT22;1616;52.394;9.756;2024-03-08T00:43:39;2.70;94.80
3208;DHT22;1616;52.394;9.756;2024-03-08T00:46:05;2.80;94.70
3208;DHT22;1616;52.394;9.756;2024-03-08T00:48:31;2.70;94.80
3208;DHT22;1616;52.394;9.756;2024-03-08T00:50:56;2.70;94.80
3208;DHT22;1616;52.394;9.756;2024-03-08T00:53:22;2.60;94.90
3208;DHT22;1616;52.394;9.756;2024-03-08T00:55:48;2.70;95.20
3208;DHT22;1616;52.394;9.756;2024-03-08T00:58:14;2.70;95.10
3208;DHT22;1616;52.394;9.756;2024-03-08T01:00:40;2.70;95.10
3208;DHT22;1616;52.394;9.756;2024-03-08T01:03:06;2.70;95.20
3208;DHT22;1616;52.394;9.756;2024-03-08T01:05:32;2.60;95.30
3208;DHT22;1616;52.394;9.756;2024-03-08T01:07:58;2.60;95.30
3208;DHT22;1616;52.394;9.756;2024-03-08T01:10:25;2.60;95.20
3208;DHT22;1616;52.394;9.756;2024-03-08T01:12:50;2.60;95.30
3208;DHT22;1616;52.394;9.756;2024-03-08T01:15:16;2.60;95.50
3208;DHT22;1616;52.394;9.756;2024-03-08T01:17:42;2.60;95.50
3208;DHT22;1616;52.394;9.756;2024-03-08T01:20:09;2.50;95.50
3208;DHT22;1616;52.394;9.756;2024-03-08T01:22:38;2.50;95.60
3208;DHT22;1616;52.394;9.756;2024-03-08T01:25:04;2.50;95.70
3208;DHT22;1616;52.394;9.756;2024-03-08T01:27:30;2.50;95.60
3208;DHT22;1616;52.394;9.756;2024-03-08T01:29:56;2.50;95.70
3208;DHT22;1616;52.394;9.756;2024-03-08T01:32:22;2.50;95.80
3208;DHT22;1616;52.394;9.756;2024-03-08T01:34:49;2.50;95.90
3208;DHT22;1616;52.394;9.756;2024-03-08T01:37:14;2.40;95.80
3208;DHT22;1616;52.394;9.756;2024-03-08T01:39:40;2.40;95.90
3208;DHT22;1616;52.394;9.756;2024-03-08T01:42:06;2.40;95.80
3208;DHT22;1616;52.394;9.756;2024-03-08T01:44:31;2.40;95.80
3208;DHT22;1616;52.394;9.756;2024-03-08T01:46:57;2.30;95.80
3208;DHT22;1616;52.394;9.756;2024-03-08T01:49:24;2.30;95.90
3208;DHT22;1616;52.394;9.756;2024-03-08T01:51:52;2.30;96.00
3208;DHT22;1616;52.394;9.756;2024-03-08T01:54:19;2.30;96.10
3208;DHT22;1616;52.394;9.756;2024-03-08T01:56:46;2.20;96.20
3208;DHT22;1616;52.394;9.756;2024-03-08T01:59:12;2.20;96.30
3208;DHT22;1616;52.394;9.756;2024-03-08T02:01:40;2.20;96.30
3208;DHT22;1616;52.394;9.756;2024-03-08T02:04:05;2.00;96.30
3208;DHT22;1616;52.394;9.756;2024-03-08T02:06:32;2.10;97.60
3208;DHT22;1616;52.394;9.756;2024-03-08T02:08:58;2.00;96.40
3208;DHT22;1616;52.394;9.756;2024-03-08T02:11:24;2.00;96.60
3208;DHT22;1616;52.394;9.756;2024-03-08T02:13:50;2.00;96.80
3208;DHT22;1616;52.394;9.756;2024-03-08T02:16:24;1.90;96.90
3208;DHT22;1616;52.394;9.756;2024-03-08T02:18:50;1.90;97.00
3208;DHT22;1616;52.394;9.756;2024-03-08T02:21:17;1.90;96.90
3208;DHT22;1616;52.394;9.756;2024-03-08T02:23:46;1.90;97.00
3208;DHT22;1616;52.394;9.756;2024-03-08T02:26:12;1.90;97.10
3208;DHT22;1616;52.394;9.756;2024-03-08T02:28:38;1.80;97.30
3208;DHT22;1616;52.394;9.756;2024-03-08T02:31:04;1.80;97.30
3208;DHT22;1616;52.394;9.756;2024-03-08T02:33:33;1.70;97.50
3208;DHT22;1616;52.394;9.756;2024-03-08T02:35:59;1.70;97.40
3208;DHT22;1616;52.394;9.756;2024-03-08T02:38:26;1.70;97.50
3208;DHT22;1616;52.394;9.756;2024-03-08T02:40:53;1.70;97.70
3208;DHT22;1616;52.394;9.756;2024-03-08T02:43:20;1.70;97.70
3208;DHT22;1616;52.394;9.756;2024-03-08T02:45:46;1.50;97.80
3208;DHT22;1616;52.394;9.756;2024-03-08T02:48:13;1.60;98.00
3208;DHT22;1616;52.394;9.756;2024-03-08T02:50:39;1.60;97.80
3208;DHT22;1616;52.394;9.756;2024-03-08T02:53:11;1.60;98.00
3208;DHT22;1616;52.394;9.756;2024-03-08T02:55:38;1.50;97.90
3208;DHT22;1616;52.394;9.756;2024-03-08T02:58:04;1.50;98.00
3208;DHT22;1616;52.394;9.756;2024-03-08T03:00:30;1.50;98.20
3208;DHT22;1616;52.394;9.756;2024-03-08T03:02:57;1.50;98.20
3208;DHT22;1616;52.394;9.756;2024-03-08T03:05:24;1.50;98.40
3208;DHT22;1616;52.394;9.756;2024-03-08T03:07:51;1.40;98.50
3208;DHT22;1616;52.394;9.756;2024-03-08T03:10:17;1.50;98.60
3208;DHT22;1616;52.394;9.756;2024-03-08T03:12:45;1.40;98.60
3208;DHT22;1616;52.394;9.756;2024-03-08T03:15:17;1.40;98.60
3208;DHT22;1616;52.394;9.756;2024-03-08T03:17:49;1.40;98.80
3208;DHT22;1616;52.394;9.756;2024-03-08T03:20:19;1.40;98.90
3208;DHT22;1616;52.394;9.756;2024-03-08T03:22:51;1.30;99.00
3208;DHT22;1616;52.394;9.756;2024-03-08T03:25:20;1.30;99.00
3208;DHT22;1616;52.394;9.756;2024-03-08T03:27:50;1.30;99.00
3208;DHT22;1616;52.394;9.756;2024-03-08T03:30:15;1.20;99.30
3208;DHT22;1616;52.394;9.756;2024-03-08T03:32:48;1.20;99.30
3208;DHT22;1616;52.394;9.756;2024-03-08T03:35:15;1.20;99.30
3208;DHT22;1616;52.394;9.756;2024-03-08T03:37:41;1.20;99.40
3208;DHT22;1616;52.394;9.756;2024-03-08T03:40:11;1.20;99.50
3208;DHT22;1616;52.394;9.756;2024-03-08T03:42:37;1.20;99.60
3208;DHT22;1616;52.394;9.756;2024-03-08T03:45:05;1.10;99.50
3208;DHT22;1616;52.394;9.756;2024-03-08T03:47:31;1.10;99.40
3208;DHT22;1616;52.394;9.756;2024-03-08T03:49:56;1.00;99.50
3208;DHT22;1616;52.394;9.756;2024-03-08T03:52:27;1.00;99.60
3208;DHT22;1616;52.394;9.756;2024-03-08T03:54:53;1.00;99.70
3208;DHT22;1616;52.394;9.756;2024-03-08T03:57:18;1.00;99.80
3208;DHT22;1616;52.394;9.756;2024-03-08T03:59:45;0.90;99.90
3208;DHT22;1616;52.394;9.756;2024-03-08T04:02:13;0.90;99.90
3208;DHT22;1616;52.394;9.756;2024-03-08T04:04:38;0.90;99.90
3208;DHT22;1616;52.394;9.756;2024-03-08T04:07:04;0.80;99.90
3208;DHT22;1616;52.394;9.756;2024-03-08T04:09:30;0.80;99.90
3208;DHT22;1616;52.394;9.756;2024-03-08T04:11:56;0.80;99.90
3208;DHT22;1616;52.394;9.756;2024-03-08T04:14:22;0.70;99.90
3208;DHT22;1616;52.394;9.756;2024-03-08T04:16:48;0.80;99.90
3208;DHT22;1616;52.394;9.756;2024-03-08T04:19:14;0.70;99.90
3208;DHT22;1616;52.394;9.756;2024-03-08T04:21:39;0.70;99.90
3208;DHT22;1616;52.394;9.756;2024-03-08T04:24:05;0.70;99.90
3208;DHT22;1616;52.394;9.756;2024-03-08T04:26:31;0.70;99.90
3208;DHT22;1616;52.394;9.756;2024-03-08T04:28:57;0.70;99.90
3208;DHT22;1616;52.394;9.756;2024-03-08T04:31:22;0.70;99.90
3208;DHT22;1616;52.394;9.756;2024-03-08T04:33:48;0.70;99.90
3208;DHT22;1616;52.394;9.756;2024-03-08T04:36:13;0.60;99.90
3208;DHT22;1616;52.394;9.756;2024-03-08T04:38:42;0.60;99.90
3208;DHT22;1616;52.394;9.756;2024-03-08T04:41:08;0.60;99.90
3208;DHT22;1616;52.394;9.756;2024-03-08T04:43:34;0.60;99.90
3208;DHT22;1616;52.394;9.756;2024-03-08T04:46:00;0.60;99.90
3208;DHT22;1616;52.394;9.756;2024-03-08T04:48:27;0.50;99.90
3208;DHT22;1616;52.394;9.756;2024-03-08T04:50:53;0.50;99.90
3208;DHT22;1616;52.394;9.756;2024-03-08T04:53:19;0.50;99.90
3208;DHT22;1616;52.394;9.756;2024-03-08T04:55:45;0.50;99.90
3208;DHT22;1616;52.394;9.756;2024-03-08T04:58:10;0.50;99.90
3208;DHT22;1616;52.394;9.756;2024-03-08T05:00:37;0.40;99.90
3208;DHT22;1616;52.394;9.756;2024-03-08T05:03:02;0.50;99.90
3208;DHT22;1616;52.394;9.756;2024-03-08T05:05:30;0.40;99.90
3208;DHT22;1616;52.394;9.756;2024-03-08T05:07:56;0.40;99.90
3208;DHT22;1616;52.394;9.756;2024-03-08T05:10:22;0.40;99.90
3208;DHT22;1616;52.394;9.756;2024-03-08T05:12:48;0.40;99.90
3208;DHT22;1616;52.394;9.756;2024-03-08T05:15:13;0.40;99.90
3208;DHT22;1616;52.394;9.756;2024-03-08T05:17:40;0.40;99.90
3208;DHT22;1616;52.394;9.756;2024-03-08T05:20:06;0.40;99.90
3208;DHT22;1616;52.394;9.756;2024-03-08T05:22:39;0.40;99.90
3208;DHT22;1616;52.394;9.756;2024-03-08T05:25:06;0.40;99.90
3208;DHT22;1616;52.394;9.756;2024-03-08T05:27:34;0.40;99.90
3208;DHT22;1616;52.394;9.756;2024-03-08T05:30:00;0.40;99.90
3208;DHT22;1616;52.394;9.756;2024-03-08T05:32:25;0.40;99.90
3208;DHT22;1616;52.394;9.756;2024-03-08T05:34:52;0.40;99.90
3208;DHT22;1616;52.394;9.756;2024-03-08T05:37:17;0.30;99.90
3208;DHT22;1616;52.394;9.756;2024-03-08T05:39:45;0.40;99.90
3208;DHT22;1616;52.394;9.756;2024-03-08T05:42:11;0.40;99.90
3208;DHT22;1616;52.394;9.756;2024-03-08T05:44:36;0.40;99.90
3208;DHT22;1616;52.394;9.756;2024-03-08T05:47:02;0.40;99.90
3208;DHT22;1616;52.394;9.756;2024-03-08T05:49:28;0.40;99.90
3208;DHT22;1616;52.394;9.756;2024-03-08T05:51:54;0.40;99.90
3208;DHT22;1616;52.394;9.756;2024-03-08T05:54:20;0.40;99.90
3208;DHT22;1616;52.394;9.756;2024-03-08T05:56:48;0.50;99.90
3208;DHT22;1616;52.394;9.756;2024-03-08T05:59:13;0.50;99.90
3208;DHT22;1616;52.394;9.756;2024-03-08T06:01:39;0.40;99.90
3208;DHT22;1616;52.394;9.756;2024-03-08T06:04:06;0.40;99.90
3208;DHT22;1616;52.394;9.756;2024-03-08T06:06:32;0.60;99.90
3208;DHT22;1616;52.394;9.756;2024-03-08T06:08:58;0.60;99.90
3208;DHT22;1616;52.394;9.756;2024-03-08T06:11:25;0.60;99.90
3208;DHT22;1616;52.394;9.756;2024-03-08T06:13:52;0.60;99.90
3208;DHT22;1616;52.394;9.756;2024-03-08T06:16:26;0.70;99.90
3208;DHT22;1616;52.394;9.756;2024-03-08T06:18:55;0.80;99.90
3208;DHT22;1616;52.394;9.756;2024-03-08T06:21:26;0.90;99.90
3208;DHT22;1616;52.394;9.756;2024-03-08T06:23:53;0.90;99.90
3208;DHT22;1616;52.394;9.756;2024-03-08T06:26:23;1.00;99.90
3208;DHT22;1616;52.394;9.756;2024-03-08T06:28:50;1.00;99.90
3208;DHT22;1616;52.394;9.756;2024-03-08T06:31:16;1.10;99.90
3208;DHT22;1616;52.394;9.756;2024-03-08T06:33:42;1.20;99.90
3208;DHT22;1616;52.394;9.756;2024-03-08T06:36:09;1.30;99.90
3208;DHT22;1616;52.394;9.756;2024-03-08T06:38:35;1.30;99.90
3208;DHT22;1616;52.394;9.756;2024-03-08T06:41:01;1.50;99.90
3208;DHT22;1616;52.394;9.756;2024-03-08T06:43:30;1.80;99.90
3208;DHT22;1616;52.394;9.756;2024-03-08T06:45:59;2.20;99.90
3208;DHT22;1616;52.394;9.756;2024-03-08T06:48:25;2.70;99.90
3208;DHT22;1616;52.394;9.756;2024-03-08T06:50:51;3.30;99.90
3208;DHT22;1616;52.394;9.756;2024-03-08T06:53:17;3.90;99.90
3208;DHT22;1616;52.394;9.756;2024-03-08T06:55:45;4.40;99.90
3208;DHT22;1616;52.394;9.756;2024-03-08T06:58:10;4.90;99.90
3208;DHT22;1616;52.394;9.756;2024-03-08T07:00:37;5.30;99.90
3208;DHT22;1616;52.394;9.756;2024-03-08T07:03:03;5.70;99.90
3208;DHT22;1616;52.394;9.756;2024-03-08T07:05:29;6.00;99.90
3208;DHT22;1616;52.394;9.756;2024-03-08T07:07:55;6.40;99.90
3208;DHT22;1616;52.394;9.756;2024-03-08T07:10:22;6.70;99.60
3208;DHT22;1616;52.394;9.756;2024-03-08T07:12:52;7.10;97.40
3208;DHT22;1616;52.394;9.756;2024-03-08T07:15:21;7.50;95.70
3208;DHT22;1616;52.394;9.756;2024-03-08T07:17:49;7.80;93.70
3208;DHT22;1616;52.394;9.756;2024-03-08T07:20:15;8.10;92.40
3208;DHT22;1616;52.394;9.756;2024-03-08T07:22:45;8.40;92.10
3208;DHT22;1616;52.394;9.756;2024-03-08T07:25:13;8.70;90.00
3208;DHT22;1616;52.394;9.756;2024-03-08T07:27:51;9.10;88.10
3208;DHT22;1616;52.394;9.756;2024-03-08T07:30:18;9.40;83.70
3208;DHT22;1616;52.394;9.756;2024-03-08T07:33:02;9.70;82.50
3208;DHT22;1616;52.394;9.756;2024-03-08T07:35:29;10.00;78.70
3208;DHT22;1616;52.394;9.756;2024-03-08T07:37:55;10.20;75.30
3208;DHT22;1616;52.394;9.756;2024-03-08T07:40:24;10.40;73.40
3208;DHT22;1616;52.394;9.756;2024-03-08T07:42:49;10.50;71.00
3208;DHT22;1616;52.394;9.756;2024-03-08T07:45:15;10.70;69.10
3208;DHT22;1616;52.394;9.756;2024-03-08T07:47:42;10.90;66.80
3208;DHT22;1616;52.394;9.756;2024-03-08T07:50:08;11.10;64.80
3208;DHT22;1616;52.394;9.756;2024-03-08T07:52:34;11.20;64.10
3208;DHT22;1616;52.394;9.756;2024-03-08T07:55:00;11.50;63.00
3208;DHT22;1616;52.394;9.756;2024-03-08T07:57:26;11.60;61.20
3208;DHT22;1616;52.394;9.756;2024-03-08T07:59:52;11.90;59.50
3208;DHT22;1616;52.394;9.756;2024-03-08T08:02:17;12.10;59.10
3208;DHT22;1616;52.394;9.756;2024-03-08T08:04:44;12.40;59.30
3208;DHT22;1616;52.394;9.756;2024-03-08T08:07:10;12.70;58.40
3208;DHT22;1616;52.394;9.756;2024-03-08T08:09:37;13.10;55.00
3208;DHT22;1616;52.394;9.756;2024-03-08T08:12:04;13.30;53.40
3208;DHT22;1616;52.394;9.756;2024-03-08T08:14:31;13.50;52.10
3208;DHT22;1616;52.394;9.756;2024-03-08T08:16:57;13.60;51.30
3208;DHT22;1616;52.394;9.756;2024-03-08T08:19:25;13.80;50.90
3208;DHT22;1616;52.394;9.756;2024-03-08T08:21:52;14.10;50.40
3208;DHT22;1616;52.394;9.756;2024-03-08T08:24:17;14.30;49.30
3208;DHT22;1616;52.394;9.756;2024-03-08T08:26:46;14.60;47.80
3208;DHT22;1616;52.394;9.756;2024-03-08T08:29:11;14.80;46.70
3208;DHT22;1616;52.394;9.756;2024-03-08T08:31:37;14.90;43.30
3208;DHT22;1616;52.394;9.756;2024-03-08T08:34:02;14.70;43.00
3208;DHT22;1616;52.394;9.756;2024-03-08T08:36:28;14.40;40.40
3208;DHT22;1616;52.394;9.756;2024-03-08T08:38:56;14.30;40.80
3208;DHT22;1616;52.394;9.756;2024-03-08T08:41:23;14.30;41.60
3208;DHT22;1616;52.394;9.756;2024-03-08T08:43:49;14.50;41.80
3208;DHT22;1616;52.394;9.756;2024-03-08T08:46:18;14.60;40.60
3208;DHT22;1616;52.394;9.756;2024-03-08T08:48:44;14.80;39.60
3208;DHT22;1616;52.394;9.756;2024-03-08T08:51:12;15.00;38.90
3208;DHT22;1616;52.394;9.756;2024-03-08T08:53:39;15.20;37.90
3208;DHT22;1616;52.394;9.756;2024-03-08T08:56:08;15.30;36.30
3208;DHT22;1616;52.394;9.756;2024-03-08T08:58:34;15.30;36.50
3208;DHT22;1616;52.394;9.756;2024-03-08T09:01:00;15.40;36.00
3208;DHT22;1616;52.394;9.756;2024-03-08T09:03:27;15.50;35.50
3208;DHT22;1616;52.394;9.756;2024-03-08T09:05:54;15.70;34.90
3208;DHT22;1616;52.394;9.756;2024-03-08T09:08:20;15.90;32.90
3208;DHT22;1616;52.394;9.756;2024-03-08T09:10:46;15.70;29.60
3208;DHT22;1616;52.394;9.756;2024-03-08T09:13:14;15.50;30.80
3208;DHT22;1616;52.394;9.756;2024-03-08T09:15:39;15.50;31.90
3208;DHT22;1616;52.394;9.756;2024-03-08T09:18:06;15.50;31.50
3208;DHT22;1616;52.394;9.756;2024-03-08T09:20:32;15.70;31.50
3208;DHT22;1616;52.394;9.756;2024-03-08T09:22:57;16.00;31.40
3208;DHT22;1616;52.394;9.756;2024-03-08T09:25:23;16.30;26.70
3208;DHT22;1616;52.394;9.756;2024-03-08T09:27:49;16.30;26.80
3208;DHT22;1616;52.394;9.756;2024-03-08T09:30:15;16.30;26.60
3208;DHT22;1616;52.394;9.756;2024-03-08T09:32:41;16.30;26.50
3208;DHT22;1616;52.394;9.756;2024-03-08T09:35:09;16.40;26.60
3208;DHT22;1616;52.394;9.756;2024-03-08T09:37:36;16.50;26.70
3208;DHT22;1616;52.394;9.756;2024-03-08T09:40:04;16.60;26.80
3208;DHT22;1616;52.394;9.756;2024-03-08T09:42:37;16.70;26.80
3208;DHT22;1616;52.394;9.756;2024-03-08T09:45:09;16.80;26.90
3208;DHT22;1616;52.394;9.756;2024-03-08T09:47:47;16.90;27.00
3208;DHT22;1616;52.394;9.756;2024-03-08T09:50:14;17.00;27.00
3208;DHT22;1616;52.394;9.756;2024-03-08T09:52:44;17.10;27.10
3208;DHT22;1616;52.394;9.756;2024-03-08T09:55:11;16.90;27.10
3208;DHT22;1616;52.394;9.756;2024-03-08T09:57:38;16.80;26.90
3208;DHT22;1616;52.394;9.756;2024-03-08T10:00:06;16.80;26.90
3208;DHT22;1616;52.394;9.756;2024-03-08T10:02:50;16.80;26.90
3208;DHT22;1616;52.394;9.756;2024-03-08T10:05:18;16.90;27.20
3208;DHT22;1616;52.394;9.756;2024-03-08T10:07:44;16.90;27.00
3208;DHT22;1616;52.394;9.756;2024-03-08T10:10:10;17.00;27.00
3208;DHT22;1616;52.394;9.756;2024-03-08T10:12:38;16.90;27.10
3208;DHT22;1616;52.394;9.756;2024-03-08T10:15:08;16.80;26.90
3208;DHT22;1616;52.394;9.756;2024-03-08T10:17:35;16.70;26.80
3208;DHT22;1616;52.394;9.756;2024-03-08T10:20:01;16.50;26.60
3208;DHT22;1616;52.394;9.756;2024-03-08T10:22:27;16.30;26.50
3208;DHT22;1616;52.394;9.756;2024-03-08T10:24:54;16.30;26.60
3208;DHT22;1616;52.394;9.756;2024-03-08T10:27:20;16.30;26.60
3208;DHT22;1616;52.394;9.756;2024-03-08T10:29:48;16.40;26.60
3208;DHT22;1616;52.394;9.756;2024-03-08T10:32:14;16.80;26.90
3208;DHT22;1616;52.394;9.756;2024-03-08T10:34:39;17.30;27.40
3208;DHT22;1616;52.394;9.756;2024-03-08T10:37:14;17.60;27.50
3208;DHT22;1616;52.394;9.756;2024-03-08T10:39:47;17.80;27.60
3208;DHT22;1616;52.394;9.756;2024-03-08T10:42:18;17.90;27.60
3208;DHT22;1616;52.394;9.756;2024-03-08T10:45:02;18.00;27.60
3208;DHT22;1616;52.394;9.756;2024-03-08T10:47:32;18.10;27.70
3208;DHT22;1616;52.394;9.756;2024-03-08T10:52:50;18.50;25.90
3208;DHT22;1616;52.394;9.756;2024-03-08T10:55:18;18.60;24.10
3208;DHT22;1616;52.394;9.756;2024-03-08T10:57:46;18.70;23.50
3208;DHT22;1616;52.394;9.756;2024-03-08T11:00:13;18.60;22.70
3208;DHT22;1616;52.394;9.756;2024-03-08T11:02:43;18.50;22.40
3208;DHT22;1616;52.394;9.756;2024-03-08T11:05:30;18.40;22.70
3208;DHT22;1616;52.394;9.756;2024-03-08T11:07:57;18.30;22.20
3208;DHT22;1616;52.394;9.756;2024-03-08T11:10:22;18.00;22.40
3208;DHT22;1616;52.394;9.756;2024-03-08T11:12:49;18.00;23.00
3208;DHT22;1616;52.394;9.756;2024-03-08T11:15:15;18.00;22.60
3208;DHT22;1616;52.394;9.756;2024-03-08T11:17:50;18.10;22.80
3208;DHT22;1616;52.394;9.756;2024-03-08T11:20:18;18.10;22.40
3208;DHT22;1616;52.394;9.756;2024-03-08T11:22:55;18.20;22.00
3208;DHT22;1616;52.394;9.756;2024-03-08T11:25:37;17.90;21.70
3208;DHT22;1616;52.394;9.756;2024-03-08T11:28:09;17.70;22.20
3208;DHT22;1616;52.394;9.756;2024-03-08T11:30:36;17.70;22.70
3208;DHT22;1616;52.394;9.756;2024-03-08T11:33:04;17.60;22.60
3208;DHT22;1616;52.394;9.756;2024-03-08T11:35:29;17.50;22.40
3208;DHT22;1616;52.394;9.756;2024-03-08T11:37:58;17.40;24.30
3208;DHT22;1616;52.394;9.756;2024-03-08T11:40:26;17.50;23.40
3208;DHT22;1616;52.394;9.756;2024-03-08T11:42:52;17.70;22.80
3208;DHT22;1616;52.394;9.756;2024-03-08T11:45:18;17.60;22.10
3208;DHT22;1616;52.394;9.756;2024-03-08T11:47:47;17.40;22.40
3208;DHT22;1616;52.394;9.756;2024-03-08T11:50:13;17.30;22.90
3208;DHT22;1616;52.394;9.756;2024-03-08T11:52:39;17.20;23.10
3208;DHT22;1616;52.394;9.756;2024-03-08T11:55:06;17.20;23.70
3208;DHT22;1616;52.394;9.756;2024-03-08T11:57:32;17.20;24.10
3208;DHT22;1616;52.394;9.756;2024-03-08T11:59:59;17.20;23.60
3208;DHT22;1616;52.394;9.756;2024-03-08T12:02:32;17.10;23.70
3208;DHT22;1616;52.394;9.756;2024-03-08T12:05:02;17.00;23.90
3208;DHT22;1616;52.394;9.756;2024-03-08T12:07:31;16.90;24.10
3208;DHT22;1616;52.394;9.756;2024-03-08T12:10:22;16.90;23.90
3208;DHT22;1616;52.394;9.756;2024-03-08T12:12:49;16.90;24.10
3208;DHT22;1616;52.394;9.756;2024-03-08T12:15:17;16.80;23.70
3208;DHT22;1616;52.394;9.756;2024-03-08T12:17:44;16.70;22.90
3208;DHT22;1616;52.394;9.756;2024-03-08T12:20:24;16.60;23.20
3208;DHT22;1616;52.394;9.756;2024-03-08T12:22:53;16.40;23.20
3208;DHT22;1616;52.394;9.756;2024-03-08T12:25:22;16.20;24.50
3208;DHT22;1616;52.394;9.756;2024-03-08T12:27:48;16.10;26.30
3208;DHT22;1616;52.394;9.756;2024-03-08T12:30:25;16.10;26.40
3208;DHT22;1616;52.394;9.756;2024-03-08T12:32:58;16.30;26.60
3208;DHT22;1616;52.394;9.756;2024-03-08T12:35:29;16.50;26.20
3208;DHT22;1616;52.394;9.756;2024-03-08T12:37:59;16.70;25.50
3208;DHT22;1616;52.394;9.756;2024-03-08T12:40:32;16.80;24.80
3208;DHT22;1616;52.394;9.756;2024-03-08T12:43:00;16.90;24.60
3208;DHT22;1616;52.394;9.756;2024-03-08T12:45:26;17.10;23.90
3208;DHT22;1616;52.394;9.756;2024-03-08T12:47:53;16.90;23.60
3208;DHT22;1616;52.394;9.756;2024-03-08T12:50:20;16.70;23.40
3208;DHT22;1616;52.394;9.756;2024-03-08T12:52:46;16.40;24.30
3208;DHT22;1616;52.394;9.756;2024-03-08T12:55:12;16.20;25.50
3208;DHT22;1616;52.394;9.756;2024-03-08T12:57:38;15.90;26.40
3208;DHT22;1616;52.394;9.756;2024-03-08T13:00:04;15.60;26.10
3208;DHT22;1616;52.394;9.756;2024-03-08T13:02:30;15.30;26.10
3208;DHT22;1616;52.394;9.756;2024-03-08T13:04:57;15.00;25.70
3208;DHT22;1616;52.394;9.756;2024-03-08T13:07:23;14.70;25.50
3208;DHT22;1616;52.394;9.756;2024-03-08T13:09:54;14.50;25.40
3208;DHT22;1616;52.394;9.756;2024-03-08T13:12:23;14.30;25.30
3208;DHT22;1616;52.394;9.756;2024-03-08T13:14:49;14.00;25.20
3208;DHT22;1616;52.394;9.756;2024-03-08T13:17:15;13.70;24.80
3208;DHT22;1616;52.394;9.756;2024-03-08T13:19:41;13.40;24.60
3208;DHT22;1616;52.394;9.756;2024-03-08T13:22:10;13.10;24.40
3208;DHT22;1616;52.394;9.756;2024-03-08T13:24:41;12.80;24.20
3208;DHT22;1616;52.394;9.756;2024-03-08T13:27:08;12.60;24.20
3208;DHT22;1616;52.394;9.756;2024-03-08T13:29:53;12.40;24.00
3208;DHT22;1616;52.394;9.756;2024-03-08T13:32:19;12.20;23.80
3208;DHT22;1616;52.394;9.756;2024-03-08T13:34:49;11.90;23.70
3208;DHT22;1616;52.394;9.756;2024-03-08T13:37:17;11.70;25.80
3208;DHT22;1616;52.394;9.756;2024-03-08T13:39:42;11.50;27.00
3208;DHT22;1616;52.394;9.756;2024-03-08T13:42:15;11.40;28.20
3208;DHT22;1616;52.394;9.756;2024-03-08T13:44:48;11.30;28.40
3208;DHT22;1616;52.394;9.756;2024-03-08T13:47:15;11.20;29.00
3208;DHT22;1616;52.394;9.756;2024-03-08T13:49:41;11.10;29.30
3208;DHT22;1616;52.394;9.756;2024-03-08T13:52:06;11.00;29.80
3208;DHT22;1616;52.394;9.756;2024-03-08T13:54:34;10.90;30.20
3208;DHT22;1616;52.394;9.756;2024-03-08T13:57:00;10.80;30.60
3208;DHT22;1616;52.394;9.756;2024-03-08T13:59:30;10.80;31.50
3208;DHT22;1616;52.394;9.756;2024-03-08T14:02:01;10.70;31.80
3208;DHT22;1616;52.394;9.756;2024-03-08T14:04:28;10.60;32.30
3208;DHT22;1616;52.394;9.756;2024-03-08T14:06:54;10.60;32.40
3208;DHT22;1616;52.394;9.756;2024-03-08T14:09:25;10.50;32.70
3208;DHT22;1616;52.394;9.756;2024-03-08T14:11:57;10.50;33.40
3208;DHT22;1616;52.394;9.756;2024-03-08T14:14:24;10.40;33.40
3208;DHT22;1616;52.394;9.756;2024-03-08T14:16:50;10.40;33.80
3208;DHT22;1616;52.394;9.756;2024-03-08T14:19:20;10.40;34.10
3208;DHT22;1616;52.394;9.756;2024-03-08T14:21:46;10.40;34.30
3208;DHT22;1616;52.394;9.756;2024-03-08T14:24:15;10.40;34.80
3208;DHT22;1616;52.394;9.756;2024-03-08T14:26:42;10.40;34.50
3208;DHT22;1616;52.394;9.756;2024-03-08T14:29:08;10.40;34.50
3208;DHT22;1616;52.394;9.756;2024-03-08T14:31:36;10.40;34.60
3208;DHT22;1616;52.394;9.756;2024-03-08T14:34:02;10.30;34.40
3208;DHT22;1616;52.394;9.756;2024-03-08T14:36:29;10.30;34.60
3208;DHT22;1616;52.394;9.756;2024-03-08T14:38:55;10.30;38.20
3208;DHT22;1616;52.394;9.756;2024-03-08T14:41:21;10.30;35.50
3208;DHT22;1616;52.394;9.756;2024-03-08T14:43:48;10.30;35.60
3208;DHT22;1616;52.394;9.756;2024-03-08T14:46:14;10.40;35.50
3208;DHT22;1616;52.394;9.756;2024-03-08T14:48:45;10.40;35.30
3208;DHT22;1616;52.394;9.756;2024-03-08T14:51:12;10.30;34.90
3208;DHT22;1616;52.394;9.756;2024-03-08T14:53:42;10.30;35.00
3208;DHT22;1616;52.394;9.756;2024-03-08T14:56:11;10.30;34.90
3208;DHT22;1616;52.394;9.756;2024-03-08T14:58:45;10.20;34.80
3208;DHT22;1616;52.394;9.756;2024-03-08T15:01:12;10.20;34.90
3208;DHT22;1616;52.394;9.756;2024-03-08T15:03:42;10.20;35.10
3208;DHT22;1616;52.394;9.756;2024-03-08T15:06:09;10.10;35.60
3208;DHT22;1616;52.394;9.756;2024-03-08T15:08:38;10.10;35.80
3208;DHT22;1616;52.394;9.756;2024-03-08T15:11:05;10.10;36.10
3208;DHT22;1616;52.394;9.756;2024-03-08T15:13:32;10.10;36.60
3208;DHT22;1616;52.394;9.756;2024-03-08T15:16:08;10.10;39.10
3208;DHT22;1616;52.394;9.756;2024-03-08T15:18:35;10.10;37.20
3208;DHT22;1616;52.394;9.756;2024-03-08T15:21:03;10.10;37.40
3208;DHT22;1616;52.394;9.756;2024-03-08T15:23:35;10.10;37.40
3208;DHT22;1616;52.394;9.756;2024-03-08T15:26:01;10.10;37.50
3208;DHT22;1616;52.394;9.756;2024-03-08T15:28:28;10.10;37.70
3208;DHT22;1616;52.394;9.756;2024-03-08T15:31:05;10.10;37.60
3208;DHT22;1616;52.394;9.756;2024-03-08T15:33:35;10.00;37.70
3208;DHT22;1616;52.394;9.756;2024-03-08T15:36:07;10.00;37.90
3208;DHT22;1616;52.394;9.756;2024-03-08T15:38:35;9.90;39.10
3208;DHT22;1616;52.394;9.756;2024-03-08T15:41:02;9.90;39.50
3208;DHT22;1616;52.394;9.756;2024-03-08T15:43:33;9.80;39.60
3208;DHT22;1616;52.394;9.756;2024-03-08T15:46:03;9.80;40.00
3208;DHT22;1616;52.394;9.756;2024-03-08T15:48:31;9.80;40.30
3208;DHT22;1616;52.394;9.756;2024-03-08T15:50:59;9.80;40.50
3208;DHT22;1616;52.394;9.756;2024-03-08T15:53:28;9.70;40.50
3208;DHT22;1616;52.394;9.756;2024-03-08T15:55:57;9.70;40.70
3208;DHT22;1616;52.394;9.756;2024-03-08T15:58:24;9.70;40.60
3208;DHT22;1616;52.394;9.756;2024-03-08T16:00:50;9.60;40.60
3208;DHT22;1616;52.394;9.756;2024-03-08T16:03:18;9.60;40.70
3208;DHT22;1616;52.394;9.756;2024-03-08T16:05:46;9.60;41.00
3208;DHT22;1616;52.394;9.756;2024-03-08T16:08:16;9.50;41.20
3208;DHT22;1616;52.394;9.756;2024-03-08T16:10:45;9.50;41.30
3208;DHT22;1616;52.394;9.756;2024-03-08T16:13:21;9.50;41.40
3208;DHT22;1616;52.394;9.756;2024-03-08T16:15:49;9.40;41.80